Time;durP1;ratioP1;P1;durP2;ratioP2;P2;SDS_P1;SDS_P2;PMS_P1;PMS_P2;Temp;Humidity;BMP_temperature;BMP_pressure;BME280_temperature;BME280_humidity;BME280_pressure;Samples;Min_cycle;Max_cycle;Signal;HPM_P1;HPM_P2
2021/04/14 00:02:23;;;;;;;7.50;5.73;;;1.70;99.90;;;;;;6256845;28;20227;-68
2021/04/14 00:05:30;;;;;;;6.73;5.70;;;1.70;99.90;;;;;;6256824;28;20227;-68
2021/04/14 00:08:32;;;;;;;6.67;5.87;;;1.70;99.90;;;;;;6256314;28;20708;-69
2021/04/14 00:11:34;;;;;;;6.50;5.73;;;1.70;99.90;;;;;;6256731;28;20364;-68
2021/04/14 00:14:36;;;;;;;8.60;5.60;;;1.70;99.90;;;;;;6257657;28;20260;-68
2021/04/14 00:17:38;;;;;;;8.23;6.10;;;1.70;99.90;;;;;;6238871;28;20281;-68
2021/04/14 00:20:40;;;;;;;6.73;6.03;;;1.70;99.90;;;;;;6217347;28;20572;-68
2021/04/14 00:23:42;;;;;;;8.03;6.30;;;1.70;99.90;;;;;;6231122;28;20234;-68
2021/04/14 00:26:44;;;;;;;10.57;7.40;;;1.70;99.90;;;;;;6252823;28;20631;-68
2021/04/14 00:29:46;;;;;;;7.60;6.77;;;1.70;99.90;;;;;;6256916;28;20219;-68
2021/04/14 00:32:49;;;;;;;6.80;6.00;;;1.70;99.90;;;;;;6255750;28;20243;-68
2021/04/14 00:35:51;;;;;;;7.60;6.57;;;1.70;99.90;;;;;;6256576;28;20707;-68
2021/04/14 00:38:53;;;;;;;8.97;6.80;;;1.70;99.90;;;;;;6256824;28;20230;-68
2021/04/14 00:41:55;;;;;;;9.67;7.33;;;1.70;99.90;;;;;;6257323;28;20775;-68
2021/04/14 00:44:57;;;;;;;8.40;7.07;;;1.70;99.90;;;;;;6255482;28;20234;-68
2021/04/14 00:47:59;;;;;;;8.10;7.30;;;1.60;99.90;;;;;;6258001;28;20226;-68
2021/04/14 00:51:04;;;;;;;11.43;7.90;;;1.60;99.90;;;;;;6256768;28;20583;-68
2021/04/14 00:54:07;;;;;;;9.03;7.50;;;1.60;99.90;;;;;;6255920;28;20223;-68
2021/04/14 00:57:08;;;;;;;8.83;7.67;;;1.60;99.90;;;;;;6234063;28;20294;-68
2021/04/14 01:00:35;;;;;;;8.47;7.50;;;1.60;99.90;;;;;;6232374;28;20215;-68
2021/04/14 01:03:38;;;;;;;9.43;7.43;;;1.60;99.90;;;;;;6256310;28;20482;-68
2021/04/14 01:06:43;;;;;;;8.77;7.80;;;1.60;99.90;;;;;;6255143;28;20219;-68
2021/04/14 01:09:44;;;;;;;8.50;7.30;;;1.60;99.90;;;;;;6257356;28;20701;-68
2021/04/14 01:12:46;;;;;;;8.10;7.10;;;1.60;99.90;;;;;;6257425;28;20227;-68
2021/04/14 01:15:50;;;;;;;12.10;7.67;;;1.60;99.90;;;;;;6253845;28;20601;-68
2021/04/14 01:18:52;;;;;;;9.30;7.67;;;1.60;99.90;;;;;;6256923;28;20223;-68
2021/04/14 01:21:54;;;;;;;9.73;7.37;;;1.60;99.90;;;;;;6254638;28;20700;-67
2021/04/14 01:24:55;;;;;;;7.87;7.07;;;1.70;99.90;;;;;;6251286;28;20239;-67
2021/04/14 01:27:57;;;;;;;10.63;6.97;;;1.60;99.90;;;;;;6233046;28;20232;-67
2021/04/14 01:31:00;;;;;;;8.67;6.90;;;1.70;99.90;;;;;;6231573;28;20241;-68
2021/04/14 01:34:05;;;;;;;9.53;7.30;;;1.70;99.90;;;;;;6239723;28;20701;-68
2021/04/14 01:37:07;;;;;;;6.57;5.87;;;1.70;99.90;;;;;;6261679;28;20250;-68
2021/04/14 01:40:10;;;;;;;9.63;6.43;;;1.60;99.90;;;;;;6261367;28;20344;-68
2021/04/14 01:43:12;;;;;;;7.40;6.03;;;1.60;99.90;;;;;;6260784;28;20630;-68
2021/04/14 01:46:14;;;;;;;8.13;6.50;;;1.60;99.90;;;;;;6256109;28;20230;-68
2021/04/14 01:49:16;;;;;;;7.80;6.40;;;1.70;99.90;;;;;;6258151;28;20712;-67
2021/04/14 01:52:18;;;;;;;7.20;5.70;;;1.70;99.90;;;;;;6254876;28;20243;-67
2021/04/14 01:55:19;;;;;;;8.67;6.50;;;1.70;99.90;;;;;;6254594;28;20272;-67
2021/04/14 01:58:23;;;;;;;9.47;7.07;;;1.60;99.90;;;;;;6255121;28;20237;-67
2021/04/14 02:01:24;;;;;;;9.47;6.50;;;1.60;99.90;;;;;;6257344;28;20695;-67
2021/04/14 02:04:26;;;;;;;9.30;6.00;;;1.60;99.90;;;;;;6256014;28;20326;-67
2021/04/14 02:07:28;;;;;;;9.17;6.67;;;1.60;99.90;;;;;;6256247;28;20360;-67
2021/04/14 02:10:32;;;;;;;9.97;6.90;;;1.60;99.90;;;;;;6254481;28;20230;-67
2021/04/14 02:13:36;;;;;;;9.90;6.83;;;1.60;99.90;;;;;;6255348;28;20237;-67
2021/04/14 02:16:38;;;;;;;9.50;6.70;;;1.60;99.90;;;;;;6255536;28;20227;-67
2021/04/14 02:19:41;;;;;;;8.03;6.70;;;1.60;99.90;;;;;;6255879;28;20318;-67
2021/04/14 02:22:43;;;;;;;7.53;6.60;;;1.60;99.90;;;;;;6253821;28;20227;-68
2021/04/14 02:25:45;;;;;;;10.43;7.50;;;1.60;99.90;;;;;;6255599;28;20231;-68
2021/04/14 02:28:48;;;;;;;8.20;7.17;;;1.60;99.90;;;;;;6256046;28;20231;-67
2021/04/14 02:31:50;;;;;;;10.53;7.07;;;1.60;99.90;;;;;;6254685;28;20260;-67
2021/04/14 02:34:52;;;;;;;9.27;7.33;;;1.70;99.90;;;;;;6252754;28;20317;-67
2021/04/14 02:37:54;;;;;;;9.17;7.70;;;1.60;99.90;;;;;;6255315;28;20380;-67
2021/04/14 02:40:55;;;;;;;10.27;7.50;;;1.60;99.90;;;;;;6258213;28;20230;-67
2021/04/14 02:43:57;;;;;;;12.33;7.90;;;1.60;99.90;;;;;;6259044;28;20314;-67
2021/04/14 02:46:59;;;;;;;9.70;8.10;;;1.60;99.90;;;;;;6259420;28;20223;-67
2021/04/14 02:50:02;;;;;;;10.10;7.73;;;1.60;99.90;;;;;;6259024;28;20767;-67
2021/04/14 02:53:05;;;;;;;10.33;8.37;;;1.60;99.90;;;;;;6241183;28;20280;-67
2021/04/14 02:56:07;;;;;;;10.37;7.97;;;1.60;99.90;;;;;;6245748;28;20322;-67
2021/04/14 02:59:09;;;;;;;8.30;7.33;;;1.60;99.90;;;;;;6234982;28;20767;-67
2021/04/14 03:02:11;;;;;;;10.43;8.07;;;1.60;99.90;;;;;;6236412;28;20332;-67
2021/04/14 03:05:15;;;;;;;11.37;8.53;;;1.60;99.90;;;;;;6235144;28;20238;-67
2021/04/14 03:08:17;;;;;;;10.00;8.37;;;1.70;99.90;;;;;;6235086;28;20238;-67
2021/04/14 03:11:19;;;;;;;11.07;8.53;;;1.60;99.90;;;;;;6235855;28;20735;-67
2021/04/14 03:14:21;;;;;;;8.93;7.97;;;1.60;99.90;;;;;;6217926;28;20235;-67
2021/04/14 03:17:22;;;;;;;13.80;8.50;;;1.60;99.90;;;;;;6233821;28;20377;-67
2021/04/14 03:20:26;;;;;;;11.13;9.37;;;1.60;99.90;;;;;;6234059;28;20216;-67
2021/04/14 03:23:28;;;;;;;9.87;8.17;;;1.60;99.90;;;;;;6234820;28;20669;-67
2021/04/14 03:26:29;;;;;;;14.37;9.87;;;1.60;99.90;;;;;;6233518;28;20251;-67
2021/04/14 03:29:31;;;;;;;9.93;8.37;;;1.60;99.90;;;;;;6231746;28;20340;-67
2021/04/14 03:32:33;;;;;;;12.10;9.43;;;1.60;99.90;;;;;;6232205;28;20711;-68
2021/04/14 03:35:35;;;;;;;12.70;9.77;;;1.60;99.90;;;;;;6253603;28;20242;-67
2021/04/14 03:38:37;;;;;;;12.50;9.23;;;1.60;99.90;;;;;;6259221;28;20461;-67
2021/04/14 03:41:39;;;;;;;13.33;9.70;;;1.60;99.90;;;;;;6259266;28;20308;-67
2021/04/14 03:44:42;;;;;;;14.30;9.17;;;1.60;99.90;;;;;;6259772;28;20241;-67
2021/04/14 03:47:44;;;;;;;13.73;10.17;;;1.60;99.90;;;;;;6259543;28;20594;-68
2021/04/14 03:50:46;;;;;;;11.57;8.80;;;1.70;99.90;;;;;;6240596;28;20330;-68
2021/04/14 03:53:48;;;;;;;12.00;9.60;;;1.70;99.90;;;;;;6259880;28;20234;-68
2021/04/14 03:57:08;;;;;;;12.63;9.87;;;1.70;99.90;;;;;;6259652;28;20587;-68
2021/04/14 04:00:27;;;;;;;12.67;10.13;;;1.70;99.90;;;;;;6258847;28;20219;-68
2021/04/14 04:03:30;;;;;;;11.93;10.07;;;1.70;99.90;;;;;;6258239;28;20231;-67
2021/04/14 04:06:31;;;;;;;17.67;10.57;;;1.70;99.90;;;;;;6258696;28;20308;-67
2021/04/14 04:09:33;;;;;;;12.03;9.60;;;1.80;99.90;;;;;;6256538;28;20219;-67
2021/04/14 04:12:35;;;;;;;15.13;10.00;;;1.80;99.90;;;;;;6261085;28;20241;-67
2021/04/14 04:15:38;;;;;;;13.37;10.00;;;1.80;99.90;;;;;;6261648;28;20313;-67
2021/04/14 04:18:39;;;;;;;11.20;9.37;;;1.80;99.90;;;;;;6263226;28;20364;-68
2021/04/14 04:21:41;;;;;;;14.43;9.33;;;1.80;99.90;;;;;;6263196;28;20226;-67
2021/04/14 04:24:43;;;;;;;12.67;9.53;;;1.80;99.90;;;;;;6261104;28;20234;-68
2021/04/14 04:27:45;;;;;;;11.57;9.07;;;1.80;99.90;;;;;;6261713;28;20243;-68
2021/04/14 04:30:47;;;;;;;12.87;9.00;;;1.90;99.90;;;;;;6262353;28;20227;-67
2021/04/14 04:33:49;;;;;;;12.37;9.13;;;1.90;99.90;;;;;;6256844;28;20780;-68
2021/04/14 04:36:51;;;;;;;10.30;8.83;;;1.90;99.90;;;;;;6257016;28;20219;-68
2021/04/14 04:39:53;;;;;;;11.13;9.07;;;1.90;99.90;;;;;;6256082;28;20242;-68
2021/04/14 04:42:55;;;;;;;15.30;9.70;;;1.90;99.90;;;;;;6257182;28;20253;-68
2021/04/14 04:45:57;;;;;;;12.90;8.83;;;1.90;99.90;;;;;;6255780;28;20310;-68
2021/04/14 04:48:59;;;;;;;12.00;8.70;;;1.90;99.90;;;;;;6255579;28;20234;-68
2021/04/14 04:52:01;;;;;;;13.40;8.73;;;1.90;99.90;;;;;;6257031;28;20625;-67
2021/04/14 04:55:05;;;;;;;11.50;8.53;;;1.90;99.90;;;;;;6249681;28;20234;-67
2021/04/14 04:58:07;;;;;;;13.50;8.97;;;2.00;99.90;;;;;;6232963;28;20314;-67
2021/04/14 05:01:09;;;;;;;16.10;10.10;;;2.00;99.90;;;;;;6242521;28;20254;-67
2021/04/14 05:04:15;;;;;;;12.07;10.13;;;1.90;99.90;;;;;;6256744;28;20223;-68
2021/04/14 05:07:17;;;;;;;13.17;8.67;;;1.90;99.90;;;;;;6256093;28;20234;-68
2021/04/14 05:10:22;;;;;;;14.20;10.30;;;2.00;99.90;;;;;;6257377;28;20622;-67
2021/04/14 05:13:24;;;;;;;13.03;8.67;;;2.00;99.90;;;;;;6255223;28;20364;-68
2021/04/14 05:17:31;;;;;;;14.53;9.13;;;2.00;99.90;;;;;;6253631;28;20322;-68
2021/04/14 05:20:58;;;;;;;13.30;9.73;;;2.00;99.90;;;;;;6233165;28;20220;-68
2021/04/14 05:24:00;;;;;;;14.43;10.70;;;2.10;99.90;;;;;;6231546;28;20227;-68
2021/04/14 05:27:02;;;;;;;15.40;11.63;;;2.10;99.90;;;;;;6253230;28;20488;-68
2021/04/14 05:30:05;;;;;;;14.40;11.20;;;2.10;99.90;;;;;;6257389;28;20346;-68
2021/04/14 05:33:09;;;;;;;12.73;9.93;;;2.20;99.90;;;;;;6255220;28;20258;-68
2021/04/14 05:36:12;;;;;;;14.73;10.13;;;2.20;99.90;;;;;;6231676;28;20246;-68
2021/04/14 05:39:14;;;;;;;16.03;11.60;;;2.30;99.90;;;;;;6230682;28;20226;-68
2021/04/14 05:42:21;;;;;;;15.33;10.47;;;2.30;99.90;;;;;;6232067;28;20800;-68
2021/04/14 05:45:29;;;;;;;17.63;10.67;;;2.30;99.90;;;;;;6230472;28;20302;-68
2021/04/14 05:48:31;;;;;;;13.93;10.80;;;2.30;99.90;;;;;;6234402;28;20743;-68
2021/04/14 05:51:33;;;;;;;17.13;10.70;;;2.40;99.90;;;;;;6236786;28;20702;-68
2021/04/14 05:54:35;;;;;;;15.70;10.23;;;2.40;99.90;;;;;;6235223;28;20235;-68
2021/04/14 05:57:37;;;;;;;14.63;9.80;;;2.40;99.90;;;;;;6260775;28;20231;-68
2021/04/14 06:00:39;;;;;;;14.83;10.10;;;2.40;99.90;;;;;;6257052;28;20266;-68
2021/04/14 06:03:40;;;;;;;13.30;9.43;;;2.50;99.90;;;;;;6253851;28;20664;-68
2021/04/14 06:06:43;;;;;;;13.80;9.63;;;2.50;99.90;;;;;;6255469;28;20276;-68
2021/04/14 06:09:47;;;;;;;16.00;9.57;;;2.50;99.90;;;;;;6253916;28;20306;-68
2021/04/14 06:12:51;;;;;;;12.37;8.70;;;2.50;99.90;;;;;;6238908;28;20231;-68
2021/04/14 06:15:53;;;;;;;12.90;9.33;;;2.60;99.90;;;;;;6257382;28;20234;-68
2021/04/14 06:18:55;;;;;;;12.23;8.40;;;2.60;99.90;;;;;;6260889;28;20594;-68
2021/04/14 06:21:57;;;;;;;13.87;9.60;;;2.60;99.90;;;;;;6261860;28;20622;-68
2021/04/14 06:24:59;;;;;;;13.00;8.73;;;2.60;99.90;;;;;;6242978;28;20229;-68
2021/04/14 06:28:05;;;;;;;11.57;8.97;;;2.70;99.90;;;;;;6259555;28;20223;-68
2021/04/14 06:31:08;;;;;;;11.03;7.87;;;2.80;99.90;;;;;;6260394;28;20239;-67
2021/04/14 06:34:16;;;;;;;10.50;8.03;;;2.80;99.90;;;;;;6258785;28;20302;-67
2021/04/14 06:37:18;;;;;;;10.77;8.00;;;2.90;99.90;;;;;;6260076;28;20276;-68
2021/04/14 06:44:32;;;;;;;10.10;7.67;;;3.10;99.90;;;;;;6259474;28;20698;-68
2021/04/14 06:47:40;;;;;;;10.77;7.17;;;3.20;99.90;;;;;;6215822;28;20231;-68
2021/04/14 06:50:56;;;;;;;12.83;7.50;;;3.20;99.90;;;;;;6216092;28;20224;-68
2021/04/14 06:54:15;;;;;;;11.77;7.50;;;3.30;99.90;;;;;;6232571;28;20334;-68
2021/04/14 06:57:25;;;;;;;10.43;7.47;;;3.30;99.90;;;;;;6208574;28;20813;-68
2021/04/14 07:00:40;;;;;;;14.40;8.60;;;3.30;99.90;;;;;;6207644;28;20275;-68
2021/04/14 07:04:07;;;;;;;9.17;7.67;;;3.40;99.90;;;;;;6191537;28;20292;-68
2021/04/14 07:07:18;;;;;;;11.63;8.00;;;3.50;99.90;;;;;;6193676;28;20240;-68
2021/04/14 07:10:27;;;;;;;12.37;9.13;;;3.50;99.90;;;;;;6191311;28;20232;-68
2021/04/14 07:13:33;;;;;;;9.20;7.83;;;3.50;99.90;;;;;;6207290;28;20240;-68
2021/04/14 07:16:41;;;;;;;10.77;9.07;;;3.60;99.90;;;;;;6207690;28;20258;-68
2021/04/14 07:19:48;;;;;;;10.27;7.97;;;3.70;99.90;;;;;;6207875;28;20228;-68
2021/04/14 07:23:01;;;;;;;10.57;7.97;;;3.80;99.90;;;;;;6221294;28;20255;-68
2021/04/14 07:26:06;;;;;;;9.57;7.87;;;4.00;99.90;;;;;;6248061;28;20241;-68
2021/04/14 07:29:14;;;;;;;9.37;8.17;;;4.00;99.90;;;;;;6260149;28;20231;-68
2021/04/14 07:32:30;;;;;;;11.80;8.40;;;4.00;99.90;;;;;;6258851;28;20267;-68
2021/04/14 07:35:46;;;;;;;10.37;8.57;;;4.00;99.90;;;;;;6257391;28;20285;-68
2021/04/14 07:39:02;;;;;;;12.43;8.40;;;4.10;99.90;;;;;;6258914;28;20243;-68
2021/04/14 07:42:25;;;;;;;10.07;8.43;;;4.20;99.90;;;;;;6257588;28;20226;-68
2021/04/14 07:45:31;;;;;;;9.90;7.67;;;4.20;99.90;;;;;;6258634;28;20235;-68
2021/04/14 07:48:34;;;;;;;8.67;7.37;;;4.10;99.90;;;;;;6258329;28;20231;-69
2021/04/14 07:51:36;;;;;;;9.03;7.30;;;4.30;99.90;;;;;;6259014;28;20711;-69
2021/04/14 07:54:43;;;;;;;8.73;7.00;;;4.10;99.90;;;;;;6255467;28;20231;-68
2021/04/14 07:57:45;;;;;;;8.63;7.13;;;4.10;99.90;;;;;;6232560;28;20250;-68
2021/04/14 08:00:47;;;;;;;11.37;6.97;;;4.20;99.90;;;;;;6233697;28;20251;-68
2021/04/14 08:03:50;;;;;;;9.43;6.90;;;4.30;99.90;;;;;;6234249;28;20370;-68
2021/04/14 08:06:52;;;;;;;8.97;6.93;;;4.30;99.90;;;;;;6234457;28;20223;-68
2021/04/14 08:10:03;;;;;;;9.03;6.53;;;4.30;99.90;;;;;;6232160;28;20224;-68
2021/04/14 08:13:09;;;;;;;10.27;6.63;;;4.40;99.90;;;;;;6232876;28;20601;-68
2021/04/14 08:16:35;;;;;;;9.80;6.43;;;4.60;99.90;;;;;;6232464;28;20236;-68
2021/04/14 08:19:38;;;;;;;9.90;6.87;;;4.70;99.90;;;;;;6233442;28;20237;-68
2021/04/14 08:22:39;;;;;;;7.93;6.00;;;4.90;99.90;;;;;;6232498;28;20232;-68
2021/04/14 08:25:49;;;;;;;9.27;6.23;;;5.00;99.90;;;;;;6234375;28;20239;-68
2021/04/14 08:28:52;;;;;;;8.13;6.73;;;4.90;99.90;;;;;;6233680;28;20263;-68
2021/04/14 08:31:56;;;;;;;6.97;5.40;;;4.90;99.90;;;;;;6232336;28;20315;-68
2021/04/14 08:35:02;;;;;;;7.13;5.63;;;4.80;99.90;;;;;;6246147;28;20242;-68
2021/04/14 08:38:12;;;;;;;8.80;5.47;;;4.90;99.90;;;;;;6238761;28;20731;-68
2021/04/14 08:41:40;;;;;;;8.10;5.67;;;4.90;99.90;;;;;;6256044;28;20765;-68
2021/04/14 08:44:46;;;;;;;7.90;5.53;;;5.00;99.90;;;;;;6257906;28;20223;-68
2021/04/14 08:47:58;;;;;;;8.33;6.00;;;5.10;99.90;;;;;;6256189;28;20617;-68
2021/04/14 08:51:04;;;;;;;11.10;5.63;;;5.10;99.90;;;;;;6256627;28;20235;-68
2021/04/14 08:54:07;;;;;;;7.63;5.00;;;5.20;99.90;;;;;;6262304;28;20211;-68
2021/04/14 08:57:09;;;;;;;11.50;6.33;;;5.30;99.90;;;;;;6258602;28;20204;-68
2021/04/14 09:00:12;;;;;;;8.57;5.73;;;5.10;99.90;;;;;;6256248;28;20215;-67
2021/04/14 09:03:18;;;;;;;7.13;5.27;;;4.80;99.90;;;;;;6256642;28;20227;-67
2021/04/14 09:06:21;;;;;;;7.87;5.67;;;4.40;99.90;;;;;;6255478;28;20207;-67
2021/04/14 09:09:28;;;;;;;9.23;6.47;;;4.20;99.90;;;;;;6256059;28;20224;-67
2021/04/14 09:12:36;;;;;;;9.77;7.10;;;4.20;99.90;;;;;;6256602;28;20313;-67
2021/04/14 09:15:55;;;;;;;9.10;6.93;;;4.30;99.90;;;;;;6254506;28;20231;-68
2021/04/14 09:19:07;;;;;;;7.97;7.17;;;4.70;99.90;;;;;;6257101;28;20231;-68
2021/04/14 09:22:16;;;;;;;10.33;7.20;;;5.00;99.90;;;;;;6239982;28;20228;-68
2021/04/14 09:25:29;;;;;;;11.00;7.10;;;5.20;99.90;;;;;;6255419;28;20252;-68
2021/04/14 09:28:47;;;;;;;7.47;6.73;;;5.40;99.90;;;;;;6256745;28;20244;-68
2021/04/14 09:31:52;;;;;;;10.50;7.83;;;5.40;99.90;;;;;;6255884;28;20240;-68
2021/04/14 09:34:54;;;;;;;8.97;7.30;;;5.30;99.90;;;;;;6256369;28;20228;-68
2021/04/14 09:38:09;;;;;;;9.10;6.90;;;5.10;99.90;;;;;;6256511;28;20364;-68
2021/04/14 09:41:10;;;;;;;9.00;7.43;;;4.80;99.90;;;;;;6233386;28;20708;-68
2021/04/14 09:44:33;;;;;;;9.73;6.93;;;4.60;99.90;;;;;;6231454;28;20716;-67
2021/04/14 09:47:38;;;;;;;9.17;6.67;;;4.50;99.90;;;;;;6236361;28;20228;-67
2021/04/14 09:50:42;;;;;;;8.70;7.03;;;4.80;99.90;;;;;;6235588;28;20228;-67
2021/04/14 09:53:46;;;;;;;6.87;5.50;;;5.20;99.90;;;;;;6230424;28;20602;-67
2021/04/14 09:56:51;;;;;;;8.27;6.80;;;5.50;99.90;;;;;;6251756;28;20230;-67
2021/04/14 10:00:00;;;;;;;5.00;4.37;;;5.70;99.90;;;;;;6238738;28;20277;-67
2021/04/14 10:03:21;;;;;;;7.40;5.03;;;5.50;99.90;;;;;;6238015;28;20225;-67
2021/04/14 10:06:26;;;;;;;8.27;6.10;;;5.10;99.90;;;;;;6256519;28;20269;-67
2021/04/14 10:09:36;;;;;;;6.27;5.67;;;4.60;99.90;;;;;;6254629;28;20282;-67
2021/04/14 10:12:38;;;;;;;9.47;6.80;;;4.20;99.90;;;;;;6255873;28;20237;-67
2021/04/14 10:15:43;;;;;;;8.10;6.40;;;4.00;99.90;;;;;;6254034;28;20241;-67
2021/04/14 10:18:45;;;;;;;9.20;5.90;;;4.10;99.90;;;;;;6257423;28;20257;-67
2021/04/14 10:21:47;;;;;;;8.47;6.87;;;4.50;99.90;;;;;;6256740;28;20760;-67
2021/04/14 10:24:57;;;;;;;8.47;6.80;;;4.90;99.90;;;;;;6255189;28;20400;-67
2021/04/14 10:28:02;;;;;;;7.67;6.43;;;5.40;99.90;;;;;;6254349;28;20770;-68
2021/04/14 10:31:09;;;;;;;9.53;7.93;;;5.90;99.90;;;;;;6257776;28;20235;-68
2021/04/14 10:34:24;;;;;;;8.10;7.27;;;6.30;99.90;;;;;;6256280;28;20220;-68
2021/04/14 10:37:27;;;;;;;9.97;8.03;;;6.60;99.90;;;;;;6254779;28;20296;-68
2021/04/14 10:40:35;;;;;;;8.90;7.07;;;6.80;99.90;;;;;;6254454;28;20245;-68
2021/04/14 10:43:38;;;;;;;8.07;6.50;;;6.60;99.90;;;;;;6254642;28;20226;-68
2021/04/14 10:46:40;;;;;;;6.30;5.70;;;6.50;99.90;;;;;;6255796;28;20321;-68
2021/04/14 10:49:46;;;;;;;9.17;6.60;;;6.20;99.90;;;;;;6255425;28;20372;-68
2021/04/14 10:52:57;;;;;;;6.47;5.87;;;5.90;99.90;;;;;;6254290;28;20238;-68
2021/04/14 10:55:59;;;;;;;8.87;5.97;;;5.60;99.90;;;;;;6255706;28;20634;-67
2021/04/14 10:59:07;;;;;;;8.50;6.60;;;5.50;99.90;;;;;;6255353;28;20820;-67
2021/04/14 11:02:21;;;;;;;6.17;4.90;;;5.40;99.90;;;;;;6259447;28;20317;-67
2021/04/14 11:05:24;;;;;;;8.30;5.30;;;5.50;99.90;;;;;;6259582;28;20261;-67
2021/04/14 11:08:27;;;;;;;7.67;5.83;;;5.90;99.90;;;;;;6261521;28;20235;-67
2021/04/14 11:11:29;;;;;;;6.33;5.13;;;6.20;99.90;;;;;;6265659;28;20233;-67
2021/04/14 11:14:32;;;;;;;8.53;5.00;;;6.40;99.90;;;;;;6259834;28;20725;-67
2021/04/14 11:17:34;;;;;;;8.17;4.13;;;6.50;99.90;;;;;;6259126;28;20357;-67
2021/04/14 11:20:42;;;;;;;5.73;3.60;;;6.40;99.90;;;;;;6259081;28;20826;-67
2021/04/14 11:23:45;;;;;;;5.43;4.67;;;6.30;99.90;;;;;;6260161;28;20254;-67
2021/04/14 11:26:53;;;;;;;6.00;3.40;;;6.40;99.90;;;;;;6260450;28;20226;-67
2021/04/14 11:30:12;;;;;;;5.23;3.70;;;6.40;99.90;;;;;;6260503;28;20234;-67
2021/04/14 11:33:15;;;;;;;6.87;4.17;;;6.40;99.90;;;;;;6257509;28;20634;-67
2021/04/14 11:36:26;;;;;;;5.57;4.03;;;6.50;99.90;;;;;;6258903;28;20219;-67
2021/04/14 11:39:35;;;;;;;6.60;3.80;;;6.60;99.90;;;;;;6259777;28;20365;-67
2021/04/14 11:42:58;;;;;;;6.23;3.80;;;6.90;99.90;;;;;;6259185;28;20242;-67
2021/04/14 11:46:26;;;;;;;4.30;3.90;;;7.20;99.90;;;;;;6260120;28;20231;-67
2021/04/14 11:49:36;;;;;;;5.07;3.07;;;7.30;99.90;;;;;;6257602;28;20238;-67
2021/04/14 11:52:54;;;;;;;6.13;3.30;;;7.50;99.90;;;;;;6259697;28;20241;-67
2021/04/14 11:56:01;;;;;;;3.60;3.10;;;7.60;99.90;;;;;;6258053;28;20281;-67
2021/04/14 11:59:06;;;;;;;5.30;3.37;;;7.60;99.90;;;;;;6258460;28;20791;-67
2021/04/14 12:02:11;;;;;;;6.20;3.17;;;7.50;99.90;;;;;;6258945;28;20314;-68
2021/04/14 12:05:13;;;;;;;4.03;2.80;;;7.00;99.90;;;;;;6257195;28;20229;-68
2021/04/14 12:08:15;;;;;;;4.30;2.70;;;6.50;99.90;;;;;;6259162;28;20252;-67
2021/04/14 12:11:23;;;;;;;4.70;2.67;;;6.20;99.90;;;;;;6258901;28;20858;-67
2021/04/14 12:14:25;;;;;;;7.87;2.57;;;6.20;99.90;;;;;;6259257;28;20230;-67
2021/04/14 12:17:27;;;;;;;4.63;2.80;;;6.30;99.90;;;;;;6259105;28;20310;-67
2021/04/14 12:20:29;;;;;;;5.03;2.67;;;6.60;99.90;;;;;;6255776;28;20668;-67
2021/04/14 12:23:31;;;;;;;3.77;2.57;;;7.00;99.90;;;;;;6259295;28;20597;-67
2021/04/14 12:26:33;;;;;;;7.43;3.10;;;7.70;99.90;;;;;;6256966;28;20235;-67
2021/04/14 12:29:35;;;;;;;5.50;3.00;;;8.50;99.90;;;;;;6258870;28;20321;-67
2021/04/14 12:32:37;;;;;;;5.47;2.70;;;9.00;99.90;;;;;;6256141;28;20230;-67
2021/04/14 12:35:40;;;;;;;5.83;2.87;;;9.30;99.90;;;;;;6256680;28;20297;-67
2021/04/14 12:38:42;;;;;;;4.60;2.60;;;9.50;99.80;;;;;;6257912;28;20612;-67
2021/04/14 12:41:43;;;;;;;4.23;2.97;;;9.50;99.50;;;;;;6257431;28;20320;-67
2021/04/14 12:44:50;;;;;;;5.27;3.13;;;9.30;92.70;;;;;;6255671;28;20237;-67
2021/04/14 12:47:52;;;;;;;4.80;2.80;;;9.10;95.30;;;;;;6258432;28;20232;-67
2021/04/14 12:51:15;;;;;;;4.47;2.40;;;9.10;93.60;;;;;;6257517;28;20235;-67
2021/04/14 12:54:29;;;;;;;4.63;2.30;;;9.50;90.20;;;;;;6257743;28;20766;-67
2021/04/14 12:57:33;;;;;;;3.47;2.30;;;9.90;88.30;;;;;;6232397;28;20366;-67
2021/04/14 13:00:34;;;;;;;5.43;2.00;;;10.20;85.80;;;;;;6240569;28;20228;-67
2021/04/14 13:03:42;;;;;;;4.47;2.30;;;10.20;73.30;;;;;;6260917;28;20303;-67
2021/04/14 13:06:48;;;;;;;5.67;1.97;;;10.10;76.60;;;;;;6255105;28;20230;-67
2021/04/14 13:09:52;;;;;;;2.43;1.90;;;10.40;75.80;;;;;;6257122;28;20250;-68
2021/04/14 13:12:54;;;;;;;3.73;1.80;;;10.60;68.10;;;;;;6254612;28;20235;-67
2021/04/14 13:16:02;;;;;;;2.90;2.13;;;10.30;62.40;;;;;;6257613;28;20228;-67
2021/04/14 13:19:05;;;;;;;3.00;2.17;;;10.30;63.80;;;;;;6256368;28;20235;-67
2021/04/14 13:22:35;;;;;;;3.97;2.63;;;10.40;63.50;;;;;;6258501;28;20581;-67
2021/04/14 13:26:09;;;;;;;5.60;2.70;;;10.20;58.30;;;;;;6255989;28;20234;-67
2021/04/14 13:29:28;;;;;;;3.50;2.80;;;10.10;63.50;;;;;;6256926;28;20238;-67
2021/04/14 13:32:49;;;;;;;5.93;2.80;;;9.80;60.10;;;;;;6256344;28;20270;-67
2021/04/14 13:36:04;;;;;;;4.40;2.87;;;9.70;56.60;;;;;;6254937;28;20231;-67
2021/04/14 13:39:19;;;;;;;3.03;2.70;;;9.40;58.30;;;;;;6255632;28;20320;-67
2021/04/14 13:42:28;;;;;;;3.63;3.10;;;9.30;59.60;;;;;;6255304;28;20218;-67
2021/04/14 13:45:54;;;;;;;4.63;3.17;;;9.20;58.00;;;;;;6256673;28;20235;-68
2021/04/14 13:49:08;;;;;;;5.23;3.47;;;8.90;61.80;;;;;;6254105;28;20236;-67
2021/04/14 13:52:23;;;;;;;4.73;3.40;;;8.50;65.20;;;;;;6255263;28;20381;-67
2021/04/14 13:55:24;;;;;;;5.40;3.57;;;8.10;63.10;;;;;;6256307;28;20575;-67
2021/04/14 13:58:38;;;;;;;4.50;2.90;;;8.10;60.60;;;;;;6256708;28;20430;-67
2021/04/14 14:01:53;;;;;;;4.83;3.43;;;8.10;62.90;;;;;;6253835;28;20712;-67
2021/04/14 14:04:57;;;;;;;5.20;3.03;;;8.40;61.10;;;;;;6255645;28;20701;-66
2021/04/14 14:08:26;;;;;;;5.10;3.00;;;8.90;61.20;;;;;;6256600;28;20694;-66
2021/04/14 14:11:30;;;;;;;4.40;2.83;;;9.20;59.60;;;;;;6256874;28;20234;-67
2021/04/14 14:14:32;;;;;;;2.97;2.60;;;8.90;60.50;;;;;;6257378;28;20258;-67
2021/04/14 14:17:42;;;;;;;3.47;2.60;;;8.50;59.30;;;;;;6255128;28;20232;-66
2021/04/14 14:20:44;;;;;;;4.30;2.73;;;8.30;58.10;;;;;;6254863;28;20227;-66
2021/04/14 14:23:55;;;;;;;7.53;2.80;;;8.10;59.80;;;;;;6253847;28;20253;-66
2021/04/14 14:27:00;;;;;;;5.43;2.60;;;8.10;58.30;;;;;;6256416;28;20234;-66
2021/04/14 14:30:04;;;;;;;4.93;2.33;;;8.20;59.00;;;;;;6272366;28;20227;-66
2021/04/14 14:33:06;;;;;;;3.93;2.20;;;8.50;59.20;;;;;;6279723;28;20257;-66
2021/04/14 14:36:14;;;;;;;3.43;2.07;;;8.90;60.60;;;;;;6256801;28;20295;-66
2021/04/14 14:39:22;;;;;;;4.93;2.50;;;9.10;60.40;;;;;;6259967;28;20277;-66
2021/04/14 14:42:32;;;;;;;2.27;1.77;;;9.20;58.00;;;;;;6260548;28;20688;-66
2021/04/14 14:45:41;;;;;;;3.73;2.10;;;9.10;58.90;;;;;;6259337;28;20309;-66
2021/04/14 14:48:45;;;;;;;2.00;1.73;;;9.00;56.20;;;;;;6261406;28;20227;-66
2021/04/14 14:56:59;;;;;;;4.50;2.20;;;9.00;58.50;;;;;;6261862;28;20211;-67
2021/04/14 15:00:14;;;;;;;8.10;2.73;;;8.90;55.00;;;;;;6259460;28;20280;-66
2021/04/14 15:03:16;;;;;;;5.97;2.70;;;8.70;56.10;;;;;;6261039;28;20215;-66
2021/04/14 15:06:25;;;;;;;4.93;2.63;;;8.50;58.60;;;;;;6260165;28;20211;-66
2021/04/14 15:09:27;;;;;;;5.03;2.13;;;8.30;59.40;;;;;;6259681;28;20747;-66
2021/04/14 15:12:29;;;;;;;4.23;2.37;;;8.00;59.40;;;;;;6259381;28;20232;-67
2021/04/14 15:15:31;;;;;;;4.57;2.33;;;7.70;58.70;;;;;;6260219;28;20226;-66
2021/04/14 15:18:33;;;;;;;3.53;2.30;;;7.40;60.20;;;;;;6258473;28;20256;-66
2021/04/14 15:21:35;;;;;;;5.53;2.30;;;7.40;59.60;;;;;;6257624;28;20226;-66
2021/04/14 15:24:37;;;;;;;5.80;2.17;;;7.80;59.90;;;;;;6260568;28;20230;-66
2021/04/14 15:27:40;;;;;;;6.70;2.10;;;8.10;60.40;;;;;;6259534;28;20599;-66
2021/04/14 15:30:42;;;;;;;3.30;1.87;;;8.00;59.40;;;;;;6258074;28;20230;-66
2021/04/14 15:33:50;;;;;;;6.73;2.17;;;7.90;59.40;;;;;;6258010;28;20284;-66
2021/04/14 15:36:52;;;;;;;3.67;1.73;;;7.80;59.20;;;;;;6260602;28;20284;-67
2021/04/14 15:39:56;;;;;;;3.33;1.83;;;7.60;57.60;;;;;;6259755;28;20226;-67
2021/04/14 15:42:59;;;;;;;3.70;1.87;;;7.40;62.30;;;;;;6260024;28;20231;-66
2021/04/14 15:46:03;;;;;;;3.60;1.80;;;7.20;62.70;;;;;;6257793;28;20621;-66
2021/04/14 15:49:05;;;;;;;4.07;2.00;;;7.20;61.40;;;;;;6256810;28;20739;-66
2021/04/14 15:52:08;;;;;;;4.00;1.90;;;7.20;61.10;;;;;;6259263;28;20227;-66
2021/04/14 15:55:13;;;;;;;3.47;2.33;;;7.20;59.00;;;;;;6254575;28;20230;-67
2021/04/14 15:58:15;;;;;;;5.70;2.23;;;7.10;60.20;;;;;;6260302;28;20302;-66
2021/04/14 16:01:22;;;;;;;4.60;1.80;;;7.10;63.30;;;;;;6250629;28;20246;-66
2021/04/14 16:04:25;;;;;;;5.03;2.47;;;7.10;63.50;;;;;;6255118;28;20227;-66
2021/04/14 16:07:27;;;;;;;3.00;1.80;;;7.20;62.90;;;;;;6258447;28;20230;-66
2021/04/14 16:10:30;;;;;;;2.90;2.00;;;7.10;59.20;;;;;;6258970;28;20230;-66
2021/04/14 16:13:32;;;;;;;3.57;1.43;;;7.00;61.00;;;;;;6282007;28;20287;-66
2021/04/14 16:16:35;;;;;;;3.67;1.83;;;7.00;62.50;;;;;;6278862;28;20237;-66
2021/04/14 16:19:37;;;;;;;5.37;2.47;;;6.90;62.00;;;;;;6257042;28;20234;-66
2021/04/14 16:22:40;;;;;;;5.13;2.10;;;6.90;61.80;;;;;;6257957;28;20562;-66
2021/04/14 16:25:42;;;;;;;2.90;1.83;;;6.80;64.30;;;;;;6257485;28;20265;-66